Amherst, OH

3:18 AM EDT on May 29, 2017 (GMT -0400)
Apple Orchard | | Change Station
Active Advisory: Flood Warning

Elev 679 ft 41.40 °N, 82.25 °W | Updated 3 seconds ago

Partly Cloudy
Partly Cloudy
62.4 °F
Feels Like 62.4 °F
N
3.4
Wind Variable Wind from WSW
Gusts 4.9 mph

Today
High -- | Low -- °F
--% Chance of Precip.
Yesterday
High -- | Low -- °F
Precip. -- in
Pressure 29.75 in
Visibility 10.0 miles
Clouds Mostly Cloudy 4300 ft
Overcast 7000 ft
Dew Point 61 °F
Humidity 96%
Rainfall 0.04 in
Snow Depth Not available.
5:59 AM 8:53 PM
Waxing Crescent, 17% visible
METAR KLPR 290653Z AUTO 27010KT 10SM BKN043 OVC070 17/13 A2977 RMK AO2 RAE0558 SLP075 P0000 T01670133 $
Pressure 29.75 in
Visibility 10.0 miles
Clouds Mostly Cloudy 4300 ft
Overcast 7000 ft
Dew Point 61 °F
Humidity 96%
Rainfall 0.04 in
Snow Depth Not available.
5:59 AM 8:53 PM
Waxing Crescent, 17% visible
METAR KLPR 290653Z AUTO 27010KT 10SM BKN043 OVC070 17/13 A2977 RMK AO2 RAE0558 SLP075 P0000 T01670133 $

Get Your Daily Forecast Email!

Thanks for signing up!

Be on the lookout for a verification email in your inbox.

You'll start receiving severe weather alerts in your inbox..

×

10-Day Weather Forecast

Almanac

Astronomy

May. 29, 2017 Rise Set
Actual Time
Civil Twilight
Nautical Twilight
Astronomical Twilight
Moon
Length of Visible Light
Length of Day
Tomorrow will be .
, % of the Moon is Illuminated

Today's Extremes

State Highs State Lows

Community

WunderPhotos

Category 6

Welcome to Category 6. This is the collective home for Weather Underground's featured writeups by Dr. Jeff Masters (right), Bob Henson (left), Chris Burt, and other regular contributors.

Nearby

Air Quality

  Air Quality AQ Index Pollutant
Not available.

Snow Depth

Station Depth Elevation

Earthquake Activity

City Distance Mag. Time & Date
Minimum magnitude displayed is 2.5.

Coastal Water Temperatures

Place Temperature

Stations

Nearby Weather Stations

Station Location Temp. Windchill Dew Point Humidity Wind Precip. Elev Updated Type
                   

Watches & Warnings

Flood Warning
Issued: 2:31 AM EDT May. 29, 2017 – National Weather Service

The National Weather Service in Cleveland has issued a

* Flood Warning for
the Black River at Elyria
* until this afternoon.
* At 2 am the stage was 9.3 feet.
* Flood stage is 9.5 feet.
* Minor flooding is forecast.
* Forecast... rise above flood stage early this morning and rise to
near 9.8 feet this morning. The river will fall below flood
stage by early afternoon.
* At 9.5 feet... flooding begins south of Elyria in Carlisle township.


Lat... Lon 4146 8219 4148 8212 4139 8207 4127 8215
      4128 8220 4140 8212